Time;durP1;ratioP1;P1;durP2;ratioP2;P2;SDS_P1;SDS_P2;PMS_P1;PMS_P2;Temp;Humidity;BMP_temperature;BMP_pressure;BME280_temperature;BME280_humidity;BME280_pressure;Samples;Min_cycle;Max_cycle;Signal;HPM_P1;HPM_P2
2022/10/24 00:01:58;;;;;;;25.10;9.30;;;;;;;10.02;80.04;99253.02;25473;1323;3026988;-69
2022/10/24 00:04:27;;;;;;;25.40;9.30;;;;;;;10.48;78.39;99248.02;25469;1326;3051871;-67
2022/10/24 00:06:56;;;;;;;18.90;9.50;;;;;;;10.56;77.33;99255.24;25477;1326;3026591;-72
2022/10/24 00:09:27;;;;;;;21.60;9.50;;;;;;;10.39;78.25;99252.63;25466;1326;3026662;-71
2022/10/24 00:11:56;;;;;;;25.90;9.90;;;;;;;10.13;79.03;99253.39;25473;1320;3026355;-66
2022/10/24 00:14:25;;;;;;;25.50;11.10;;;;;;;10.05;79.45;99249.48;25473;1326;3048680;-68
2022/10/24 00:16:54;;;;;;;21.20;9.00;;;;;;;9.85;80.60;99255.09;25452;1324;3026639;-73
2022/10/24 00:19:24;;;;;;;13.80;5.70;;;;;;;9.67;81.27;99258.25;25471;1331;3026603;-71
2022/10/24 00:21:53;;;;;;;11.00;4.90;;;;;;;10.11;80.73;99259.44;25466;1330;3026180;-67
2022/10/24 00:24:29;;;;;;;13.90;5.80;;;;;;;10.47;78.85;99259.52;25459;1323;3069387;-72
2022/10/24 00:26:58;;;;;;;13.80;6.10;;;;;;;10.35;78.51;99262.85;25473;1326;3025995;-68
2022/10/24 00:29:27;;;;;;;15.60;6.60;;;;;;;10.23;78.66;99266.59;25444;1332;3048754;-68
2022/10/24 00:32:10;;;;;;;14.00;6.80;;;;;;;10.12;78.43;99263.59;25454;1326;3068980;-74
2022/10/24 00:34:40;;;;;;;13.80;7.00;;;;;;;9.89;78.80;99257.83;25474;1319;3026352;-71
2022/10/24 00:37:11;;;;;;;15.50;7.80;;;;;;;9.55;80.01;99262.66;25484;1326;3026477;-67
2022/10/24 00:39:42;;;;;;;12.10;5.20;;;;;;;9.33;80.98;99269.88;25477;1325;3026498;-72
2022/10/24 00:42:11;;;;;;;13.40;5.80;;;;;;;9.94;79.78;99256.80;25476;1316;3026412;-65
2022/10/24 00:44:40;;;;;;;12.90;6.60;;;;;;;10.44;77.51;99260.75;25457;1333;3055200;-65
2022/10/24 00:47:13;;;;;;;13.50;8.10;;;;;;;10.45;76.86;99265.94;25466;1320;3026192;-67
2022/10/24 00:50:06;;;;;;;15.20;7.30;;;;;;;10.18;77.47;99278.40;25476;1323;3026585;-68
2022/10/24 00:52:41;;;;;;;9.30;5.70;;;;;;;9.88;78.89;99267.52;25462;1326;3052772;-68
2022/10/24 00:55:10;;;;;;;8.00;5.40;;;;;;;9.58;80.04;99266.83;25474;1327;3052369;-67
2022/10/24 00:57:44;;;;;;;8.20;5.10;;;;;;;9.43;80.86;99269.64;25428;1328;3026154;-65
2022/10/24 01:00:21;;;;;;;6.40;4.00;;;;;;;9.29;81.45;99272.19;25465;1319;3050932;-67
2022/10/24 01:02:50;;;;;;;5.90;4.00;;;;;;;9.80;80.77;99273.38;25476;1326;3052632;-72
2022/10/24 01:05:20;;;;;;;8.60;4.80;;;;;;;10.22;78.43;99270.28;25476;1327;3027090;-67
2022/10/24 01:07:49;;;;;;;8.10;5.20;;;;;;;10.19;77.96;99271.17;25460;1326;3051760;-66
2022/10/24 01:10:46;;;;;;;7.90;5.50;;;;;;;10.16;77.83;99273.67;25479;1326;3052986;-67
2022/10/24 01:13:53;;;;;;;9.40;5.80;;;;;;;9.85;78.63;99283.09;25462;1326;3048062;-68
2022/10/24 01:16:27;;;;;;;9.70;6.40;;;;;;;9.66;79.33;99274.95;25465;1326;3070401;-71
2022/10/24 01:19:03;;;;;;;11.30;7.00;;;;;;;9.45;80.16;99279.86;25466;1321;3050609;-69
2022/10/24 01:21:34;;;;;;;8.20;5.10;;;;;;;9.38;80.62;99282.16;25462;1326;3055749;-72
2022/10/24 01:24:10;;;;;;;8.20;5.10;;;;;;;9.84;79.56;99284.31;25450;1321;3026182;-68
2022/10/24 01:26:53;;;;;;;11.90;6.20;;;;;;;10.28;77.53;99280.75;25441;1326;3053343;-68
2022/10/24 01:29:51;;;;;;;;;;;;;;;10.15;77.44;99296.08;25463;1327;3050080;-70
2022/10/24 01:32:41;;;;;;;15.00;8.20;;;;;;;10.07;77.56;99295.70;25437;1327;3051735;-70
2022/10/24 01:35:42;;;;;;;17.10;9.00;;;;;;;9.75;78.67;99310.08;25470;1325;3049188;-67
2022/10/24 01:38:16;;;;;;;21.50;10.20;;;;;;;9.39;80.40;99309.36;25437;1327;3068346;-67
2022/10/24 01:41:06;;;;;;;18.70;9.50;;;;;;;9.26;81.58;99313.27;25443;1329;3049113;-67
2022/10/24 01:43:43;;;;;;;12.50;6.60;;;;;;;9.16;82.74;99310.91;25443;1327;3057489;-69
2022/10/24 01:46:15;;;;;;;15.00;6.20;;;;;;;9.81;80.69;99318.98;25446;1322;3053498;-70
2022/10/24 01:48:46;;;;;;;13.10;7.40;;;;;;;10.36;78.48;99319.50;25442;1329;3027330;-66
2022/10/24 01:51:15;;;;;;;17.40;8.40;;;;;;;10.06;79.05;99320.08;25453;1327;3026101;-74
2022/10/24 01:53:45;;;;;;;18.90;10.20;;;;;;;9.93;79.31;99321.92;25452;1328;3026736;-74
2022/10/24 01:56:14;;;;;;;24.30;11.40;;;;;;;9.74;80.11;99329.70;25450;1327;3026275;-71
2022/10/24 01:58:44;;;;;;;18.90;10.20;;;;;;;9.54;81.24;99334.20;25454;1327;3051116;-65
2022/10/24 02:01:15;;;;;;;22.60;10.70;;;;;;;9.48;82.01;99331.39;25475;1327;3026453;-66
2022/10/24 02:03:49;;;;;;;12.60;7.20;;;;;;;9.42;82.79;99337.16;25446;1327;3027567;-71
2022/10/24 02:06:20;;;;;;;18.10;7.40;;;;;;;9.99;81.83;99331.37;25471;1319;3070307;-68
2022/10/24 02:08:52;;;;;;;17.30;9.30;;;;;;;10.61;79.26;99345.14;25444;1320;3026569;-73
2022/10/24 02:11:20;;;;;;;17.90;9.50;;;;;;;10.48;79.36;99335.63;25431;1330;3028004;-71
2022/10/24 02:14:04;;;;;;;18.10;9.70;;;;;;;10.28;80.03;99339.80;25477;1327;3026969;-67
2022/10/24 02:16:36;;;;;;;23.50;10.80;;;;;;;9.84;81.78;99342.07;25456;1326;3053593;-69
2022/10/24 02:19:05;;;;;;;20.20;10.70;;;;;;;9.62;83.07;99361.69;25455;1326;3026235;-70
2022/10/24 02:21:45;;;;;;;10.90;6.00;;;;;;;9.38;84.72;99360.67;25469;1326;3052483;-69
2022/10/24 02:24:16;;;;;;;14.20;7.00;;;;;;;9.92;84.40;99347.23;25473;1317;3053430;-72
2022/10/24 02:26:53;;;;;;;15.00;8.90;;;;;;;10.31;82.11;99353.48;25463;1326;3027792;-68
2022/10/24 02:29:24;;;;;;;12.10;6.90;;;;;;;10.29;81.83;99351.65;25426;1327;3051694;-72
2022/10/24 02:31:54;;;;;;;13.70;7.30;;;;;;;10.14;82.53;99345.34;25461;1320;3025762;-67
2022/10/24 02:34:25;;;;;;;13.70;7.20;;;;;;;9.81;83.81;99357.60;25427;1317;3027408;-64
2022/10/24 02:36:55;;;;;;;14.00;7.40;;;;;;;9.64;84.80;99365.09;25427;1327;3026475;-66
2022/10/24 02:39:24;;;;;;;7.90;4.40;;;;;;;9.56;85.73;99363.65;25442;1319;3027173;-66
2022/10/24 02:41:53;;;;;;;10.50;4.90;;;;;;;9.91;85.27;99362.43;25435;1325;3026826;-65
2022/10/24 02:44:23;;;;;;;10.90;5.60;;;;;;;10.53;82.98;99347.07;25457;1319;3049030;-66
2022/10/24 02:46:53;;;;;;;12.60;6.10;;;;;;;10.48;82.09;99358.55;25435;1329;3026684;-67
2022/10/24 02:49:23;;;;;;;13.20;6.60;;;;;;;10.33;82.55;99351.05;25421;1327;3069858;-65
2022/10/24 02:51:52;;;;;;;13.10;6.40;;;;;;;10.12;83.43;99353.14;25438;1316;3027622;-68
2022/10/24 02:54:21;;;;;;;12.60;7.20;;;;;;;9.82;84.63;99357.40;25450;1326;3024914;-73
2022/10/24 02:56:55;;;;;;;8.10;4.10;;;;;;;9.79;84.95;99355.13;25465;1326;3068221;-65
2022/10/24 02:59:24;;;;;;;10.30;5.50;;;;;;;10.16;84.79;99358.35;25456;1319;3049490;-70
2022/10/24 03:01:54;;;;;;;9.70;6.00;;;;;;;10.44;83.40;99352.14;25465;1319;3026061;-66
2022/10/24 03:04:23;;;;;;;11.40;6.40;;;;;;;10.45;83.09;99356.65;25468;1319;3068047;-72
2022/10/24 03:06:52;;;;;;;10.60;6.00;;;;;;;10.41;83.03;99360.38;25474;1318;3027068;-71
2022/10/24 03:09:23;;;;;;;12.30;6.50;;;;;;;10.20;83.73;99363.73;25480;1326;3026644;-66
2022/10/24 03:11:55;;;;;;;11.60;6.60;;;;;;;10.00;84.74;99362.98;25475;1325;3026485;-66
2022/10/24 03:14:24;;;;;;;8.20;4.00;;;;;;;9.91;85.43;99359.66;25483;1326;3026613;-70
2022/10/24 03:16:54;;;;;;;11.20;5.20;;;;;;;10.32;84.66;99366.35;25464;1326;3026260;-73
2022/10/24 03:19:23;;;;;;;10.60;5.90;;;;;;;10.75;82.61;99357.58;25472;1325;3052015;-72
2022/10/24 03:21:51;;;;;;;9.90;6.30;;;;;;;10.75;82.21;99356.34;25481;1327;3025668;-70
2022/10/24 03:24:20;;;;;;;12.00;6.10;;;;;;;10.64;82.39;99361.26;25474;1326;3056406;-64
2022/10/24 03:26:51;;;;;;;11.60;6.30;;;;;;;10.27;83.23;99374.14;25483;1317;3026865;-65
2022/10/24 03:29:20;;;;;;;14.00;7.60;;;;;;;10.17;83.70;99371.11;25470;1317;3026896;-66
2022/10/24 03:31:49;;;;;;;8.00;5.00;;;;;;;9.89;84.93;99370.14;25474;1325;3025156;-70
2022/10/24 03:34:18;;;;;;;8.20;4.50;;;;;;;10.47;83.85;99363.50;25474;1319;3050999;-68
2022/10/24 03:36:47;;;;;;;10.20;5.20;;;;;;;11.04;80.96;99361.53;25486;1327;3025802;-69
2022/10/24 03:39:16;;;;;;;9.00;5.30;;;;;;;10.92;80.11;99376.30;25463;1319;3055444;-72
2022/10/24 03:41:45;;;;;;;10.80;6.00;;;;;;;10.73;81.26;99378.20;25481;1326;3026482;-74
2022/10/24 03:44:14;;;;;;;15.40;5.70;;;;;;;10.45;82.09;99377.83;25479;1325;3026099;-69
2022/10/24 03:46:43;;;;;;;10.90;5.80;;;;;;;10.11;83.45;99376.34;25479;1317;3055956;-68
2022/10/24 03:49:12;;;;;;;10.30;4.00;;;;;;;10.06;83.90;99373.31;25482;1323;3026354;-72
2022/10/24 03:51:41;;;;;;;10.80;5.80;;;;;;;10.44;83.23;99373.53;25481;1323;3048921;-72
2022/10/24 03:54:14;;;;;;;11.00;5.60;;;;;;;10.95;80.82;99372.10;25468;1327;3026493;-71
2022/10/24 03:56:43;;;;;;;9.90;5.40;;;;;;;10.92;80.10;99378.62;25475;1317;3027419;-75
2022/10/24 03:59:12;;;;;;;8.40;5.20;;;;;;;10.79;80.33;99378.83;25480;1327;3026835;-69
2022/10/24 04:01:41;;;;;;;9.10;5.40;;;;;;;10.67;80.39;99381.88;25466;1318;3056721;-69
2022/10/24 04:04:10;;;;;;;8.50;5.60;;;;;;;10.51;80.61;99387.40;25492;1327;3026864;-68
2022/10/24 04:06:39;;;;;;;9.40;5.00;;;;;;;10.32;81.32;99383.13;25473;1318;3048511;-71
2022/10/24 04:09:08;;;;;;;6.70;3.60;;;;;;;10.11;82.62;99390.36;25475;1327;3026412;-68
2022/10/24 04:11:37;;;;;;;6.20;3.40;;;;;;;10.56;81.90;99400.60;25472;1327;3069113;-70
2022/10/24 04:14:08;;;;;;;6.60;4.10;;;;;;;11.07;79.69;99388.48;25483;1326;3026457;-71
2022/10/24 04:16:37;;;;;;;8.90;4.90;;;;;;;11.06;78.66;99397.28;25482;1320;3048890;-66
2022/10/24 04:19:07;;;;;;;8.10;5.00;;;;;;;10.83;79.07;99392.10;25469;1326;3027048;-70
2022/10/24 04:21:36;;;;;;;8.50;5.20;;;;;;;10.56;79.37;99385.70;25480;1324;3025749;-72
2022/10/24 04:24:06;;;;;;;10.60;5.50;;;;;;;10.39;80.29;99390.46;25477;1327;3026850;-72
2022/10/24 04:26:35;;;;;;;11.10;6.70;;;;;;;10.33;80.51;99390.42;25504;1317;3025286;-66
2022/10/24 04:29:04;;;;;;;8.80;5.10;;;;;;;10.26;80.54;99386.66;25477;1327;3026036;-71
2022/10/24 04:31:33;;;;;;;11.70;6.30;;;;;;;10.95;79.25;99387.35;25462;1323;3055791;-65
2022/10/24 04:34:04;;;;;;;11.10;6.90;;;;;;;11.39;76.46;99387.46;25473;1327;3026401;-70
2022/10/24 04:36:33;;;;;;;16.00;8.20;;;;;;;11.14;76.91;99398.59;25483;1319;3049689;-73
2022/10/24 04:39:02;;;;;;;13.80;8.20;;;;;;;11.06;77.52;99397.80;25470;1327;3026484;-68
2022/10/24 04:41:35;;;;;;;15.50;9.10;;;;;;;10.77;78.08;99404.07;25473;1327;3068965;-69
2022/10/24 04:44:08;;;;;;;18.20;8.60;;;;;;;10.62;78.71;99401.35;25481;1325;3049005;-64
2022/10/24 04:46:38;;;;;;;13.00;8.20;;;;;;;10.47;79.38;99407.27;25466;1323;3026493;-71
2022/10/24 04:49:08;;;;;;;7.30;3.50;;;;;;;10.32;80.09;99411.99;25475;1323;3025665;-70
2022/10/24 04:51:38;;;;;;;7.10;4.40;;;;;;;10.70;79.50;99417.80;25487;1319;3027976;-69
2022/10/24 04:54:07;;;;;;;6.30;3.80;;;;;;;11.00;77.58;99416.45;25467;1319;3026297;-69
2022/10/24 04:56:36;;;;;;;6.90;3.90;;;;;;;11.23;76.99;99416.55;25481;1310;3051814;-66
2022/10/24 04:59:07;;;;;;;6.70;3.60;;;;;;;11.15;76.69;99417.65;25470;1326;3025974;-69
2022/10/24 05:01:36;;;;;;;6.10;4.00;;;;;;;11.00;76.98;99421.02;25462;1313;3026192;-71
2022/10/24 05:04:05;;;;;;;5.20;3.10;;;;;;;10.71;77.77;99425.25;25475;1326;3051248;-70
2022/10/24 05:06:34;;;;;;;4.90;3.10;;;;;;;10.55;78.63;99434.67;25461;1316;3026083;-71
2022/10/24 05:09:03;;;;;;;6.40;4.00;;;;;;;10.45;78.65;99435.45;25453;1322;3026103;-67
2022/10/24 05:11:32;;;;;;;2.90;2.10;;;;;;;10.25;79.88;99440.41;25463;1317;3052684;-70
2022/10/24 05:14:01;;;;;;;3.60;2.60;;;;;;;10.74;78.71;99439.79;25473;1320;3026323;-69
2022/10/24 05:16:32;;;;;;;5.40;3.30;;;;;;;11.08;76.99;99444.18;25467;1329;3056529;-66
2022/10/24 05:19:02;;;;;;;5.80;2.80;;;;;;;11.15;76.27;99445.88;25452;1317;3027059;-69
2022/10/24 05:21:34;;;;;;;5.90;3.20;;;;;;;11.05;76.42;99446.79;25473;1324;3026361;-73
2022/10/24 05:24:03;;;;;;;7.00;3.90;;;;;;;10.88;76.75;99454.85;25464;1322;3056760;-73
2022/10/24 05:26:32;;;;;;;6.10;3.90;;;;;;;10.69;77.23;99452.52;25455;1326;3024789;-64
2022/10/24 05:29:01;;;;;;;8.40;4.00;;;;;;;10.43;78.09;99465.34;25484;1323;3048774;-69
2022/10/24 05:31:32;;;;;;;7.30;3.60;;;;;;;10.36;78.59;99475.89;25470;1319;3026759;-66
2022/10/24 05:34:02;;;;;;;3.30;2.40;;;;;;;10.29;78.99;99484.52;25467;1325;3026972;-72
2022/10/24 05:36:31;;;;;;;4.10;2.80;;;;;;;10.75;78.45;99488.08;25485;1326;3026528;-67
2022/10/24 05:39:00;;;;;;;5.00;3.10;;;;;;;11.39;75.75;99483.61;25449;1327;3055208;-66
2022/10/24 05:41:31;;;;;;;5.10;3.50;;;;;;;11.48;75.38;99484.08;25477;1319;3026739;-67
2022/10/24 05:44:02;;;;;;;5.30;3.70;;;;;;;11.31;76.17;99489.71;25468;1325;3027365;-69
2022/10/24 05:46:33;;;;;;;6.50;3.50;;;;;;;11.27;76.49;99486.31;25460;1327;3025965;-67
2022/10/24 05:49:03;;;;;;;6.20;4.30;;;;;;;10.96;77.59;99497.15;25478;1326;3025786;-68
2022/10/24 05:51:32;;;;;;;6.90;4.70;;;;;;;10.91;77.99;99502.73;25469;1319;3025689;-65
2022/10/24 05:54:01;;;;;;;6.50;3.30;;;;;;;10.76;78.92;99507.98;25449;1334;3025741;-69
2022/10/24 05:56:30;;;;;;;5.50;3.50;;;;;;;11.10;78.87;99505.02;25472;1317;3050897;-69
2022/10/24 05:58:59;;;;;;;6.20;3.90;;;;;;;11.65;76.76;99510.38;25464;1326;3026246;-66
2022/10/24 06:01:29;;;;;;;5.70;4.10;;;;;;;11.71;76.14;99505.23;25461;1322;3051257;-67
2022/10/24 06:03:58;;;;;;;6.40;4.20;;;;;;;11.69;76.26;99504.67;25473;1319;3026192;-71
2022/10/24 06:06:27;;;;;;;8.10;4.10;;;;;;;11.60;76.66;99509.64;25473;1327;3027704;-69
2022/10/24 06:08:56;;;;;;;6.70;4.50;;;;;;;11.43;77.06;99512.64;25448;1327;3051295;-71
2022/10/24 06:11:25;;;;;;;7.90;4.50;;;;;;;11.20;78.26;99518.23;24751;1330;4211939;-67
2022/10/24 06:13:59;;;;;;;4.60;3.00;;;;;;;11.21;78.71;99522.80;25468;1317;3052719;-67
2022/10/24 06:16:29;;;;;;;6.80;3.80;;;;;;;11.72;77.96;99517.46;25465;1327;3025261;-70
2022/10/24 06:19:02;;;;;;;4.80;3.10;;;;;;;12.24;75.21;99511.83;25467;1327;3051960;-70
2022/10/24 06:21:31;;;;;;;6.20;3.30;;;;;;;12.54;74.62;99513.15;25483;1309;3026426;-70
2022/10/24 06:27:39;;;;;;;8.70;4.50;;;;;;;11.79;75.43;99523.81;30769;1336;3012719;-69
2022/10/24 06:30:11;;;;;;;8.60;4.50;;;;;;;11.38;76.90;99523.80;24453;1338;3068640;-66
2022/10/24 06:32:40;;;;;;;7.90;5.00;;;;;;;11.33;76.98;99526.23;24445;1339;3028750;-67
2022/10/24 06:35:12;;;;;;;6.30;3.10;;;;;;;11.17;77.93;99526.17;24431;1345;3027306;-65
2022/10/24 06:38:06;;;;;;;7.60;3.80;;;;;;;11.68;76.70;99529.41;24397;1342;3068582;-66
2022/10/24 06:40:38;;;;;;;6.60;4.40;;;;;;;12.11;74.70;99520.04;23874;1336;4099054;-67
2022/10/24 06:43:08;;;;;;;15.90;7.70;;;;;;;12.10;74.32;99526.58;24500;1336;3027215;-67
2022/10/24 06:45:37;;;;;;;8.80;5.50;;;;;;;11.95;74.85;99531.23;24562;1336;3026647;-69
2022/10/24 06:48:06;;;;;;;10.50;6.50;;;;;;;11.62;75.15;99539.86;24513;1335;3027523;-71
2022/10/24 06:50:39;;;;;;;13.40;7.30;;;;;;;11.47;76.15;99533.62;24535;1342;3058052;-68
2022/10/24 06:53:08;;;;;;;8.80;5.40;;;;;;;11.23;76.64;99538.77;24428;1335;3027202;-67
2022/10/24 06:55:38;;;;;;;9.20;5.70;;;;;;;11.15;77.17;99541.54;24417;1342;3025772;-67
2022/10/24 06:58:11;;;;;;;;;;;;;;;11.09;77.95;99546.10;24541;1327;3052070;-66
2022/10/24 07:00:40;;;;;;;9.30;3.80;;;;;;;11.66;76.53;99547.48;24551;1328;3028593;-67
2022/10/24 07:03:12;;;;;;;5.80;3.90;;;;;;;12.29;73.76;99538.92;24477;1334;3052468;-70
2022/10/24 07:05:42;;;;;;;9.50;5.90;;;;;;;12.39;72.98;99535.05;24542;1339;3049982;-69
2022/10/24 07:08:13;;;;;;;8.80;6.20;;;;;;;12.19;73.59;99542.05;24469;1336;3028749;-69
2022/10/24 07:10:41;;;;;;;11.30;6.50;;;;;;;12.09;73.84;99535.80;24527;1330;3026435;-70
2022/10/24 07:13:10;;;;;;;11.90;7.10;;;;;;;11.86;74.54;99539.85;24532;1329;3050213;-66
2022/10/24 07:15:42;;;;;;;12.60;7.30;;;;;;;11.57;74.65;99538.43;24487;1336;3026265;-73
2022/10/24 07:18:15;;;;;;;16.10;7.90;;;;;;;11.45;75.26;99543.58;24486;1335;3026682;-67
2022/10/24 07:20:44;;;;;;;13.50;7.60;;;;;;;11.30;75.65;99538.70;24506;1341;3050566;-70
2022/10/24 07:23:14;;;;;;;7.90;4.90;;;;;;;11.34;75.45;99538.11;24517;1337;3028313;-74
2022/10/24 07:25:42;;;;;;;11.30;6.00;;;;;;;11.88;74.17;99538.16;24484;1335;3026560;-68
2022/10/24 07:28:11;;;;;;;16.60;7.30;;;;;;;12.28;72.36;99544.73;24461;1335;3049910;-70
2022/10/24 07:30:42;;;;;;;14.50;7.80;;;;;;;12.19;72.63;99540.56;24537;1333;3026032;-70
2022/10/24 07:33:11;;;;;;;10.40;6.70;;;;;;;12.03;73.14;99547.44;24552;1333;3026635;-70
2022/10/24 07:35:44;;;;;;;9.10;4.80;;;;;;;11.74;74.24;99552.91;24826;1325;3026159;-71
2022/10/24 07:38:17;;;;;;;9.10;5.10;;;;;;;11.57;75.37;99552.45;24533;1333;3025955;-69
2022/10/24 07:40:52;;;;;;;9.80;5.40;;;;;;;11.61;75.15;99549.06;24520;1339;3056080;-67
2022/10/24 07:43:21;;;;;;;9.30;5.10;;;;;;;11.35;75.37;99555.05;24564;1333;3028481;-67
2022/10/24 07:45:50;;;;;;;7.70;5.00;;;;;;;11.36;75.67;99542.55;24581;1339;3049457;-70
2022/10/24 07:48:19;;;;;;;4.30;2.90;;;;;;;11.38;75.75;99542.41;24536;1326;3028878;-70
2022/10/24 07:50:49;;;;;;;6.10;4.20;;;;;;;12.14;74.02;99550.40;24501;1327;3068235;-71
2022/10/24 07:53:18;;;;;;;7.30;4.10;;;;;;;12.59;71.25;99542.82;24560;1340;3025786;-71
2022/10/24 07:55:47;;;;;;;7.20;4.80;;;;;;;12.50;70.93;99548.70;24535;1333;3048645;-70
2022/10/24 07:58:16;;;;;;;7.40;4.70;;;;;;;12.31;72.15;99555.25;24581;1340;3026466;-69
2022/10/24 08:00:49;;;;;;;9.40;5.40;;;;;;;12.15;72.42;99555.77;24589;1333;3052584;-66
2022/10/24 08:03:18;;;;;;;10.00;5.10;;;;;;;12.05;73.05;99554.83;24593;1326;3025858;-71
2022/10/24 08:05:49;;;;;;;11.90;5.70;;;;;;;12.17;72.71;99559.67;24551;1326;3050990;-71
2022/10/24 12:46:18;;;;;;;3.50;2.00;;;;;;;15.01;57.96;99606.30;30779;1335;3013510;-66
2022/10/24 12:49:09;;;;;;;4.40;2.00;;;;;;;14.77;57.93;99611.48;24421;1332;3070688;-71
2022/10/24 12:51:39;;;;;;;4.40;1.50;;;;;;;14.70;58.13;99618.21;24531;1335;3050040;-67
2022/10/24 12:54:11;;;;;;;7.60;2.00;;;;;;;14.62;58.45;99617.74;24453;1335;3026812;-70
2022/10/24 12:56:52;;;;;;;3.50;1.80;;;;;;;14.66;58.52;99619.89;24509;1336;3026749;-67
2022/10/24 12:59:24;;;;;;;5.90;3.00;;;;;;;14.82;58.18;99625.42;24124;1334;3055017;-68
2022/10/24 13:02:32;;;;;;;4.70;2.50;;;;;;;14.84;58.27;99627.94;24506;1333;3050390;-71
2022/10/24 13:05:22;;;;;;;6.00;2.90;;;;;;;14.70;58.61;99630.17;24447;1340;3053494;-65
2022/10/24 13:08:05;;;;;;;6.80;2.60;;;;;;;14.80;58.55;99629.06;24557;1334;3050238;-69
2022/10/24 13:11:00;;;;;;;5.60;3.00;;;;;;;14.70;58.69;99631.60;24488;1333;3069973;-66
2022/10/24 13:13:33;;;;;;;4.70;2.50;;;;;;;14.53;59.12;99632.50;24478;1334;3050998;-70
2022/10/24 13:16:14;;;;;;;6.90;3.20;;;;;;;14.51;59.12;99637.42;24596;1328;3028624;-70
2022/10/24 13:18:55;;;;;;;6.40;3.40;;;;;;;14.41;59.74;99649.06;24594;1334;3054185;-69
2022/10/24 13:21:32;;;;;;;5.20;2.60;;;;;;;14.41;59.76;99653.65;24528;1333;3054131;-73
2022/10/24 13:24:39;;;;;;;5.10;3.30;;;;;;;14.51;59.68;99655.57;24544;1327;3050759;-66
2022/10/24 13:27:11;;;;;;;5.60;3.10;;;;;;;14.35;60.21;99652.81;24505;1334;3054510;-69
2022/10/24 13:29:40;;;;;;;4.10;2.50;;;;;;;14.23;60.70;99660.73;24465;1340;3028306;-65
2022/10/24 13:32:08;;;;;;;10.00;2.10;;;;;;;14.17;60.95;99663.45;24578;1327;3026389;-69
2022/10/24 13:34:51;;;;;;;7.50;2.30;;;;;;;14.10;61.17;99661.52;24459;1333;3052646;-71
2022/10/24 13:37:41;;;;;;;3.70;1.90;;;;;;;14.13;61.25;99665.04;24446;1334;3051207;-71
2022/10/24 13:40:24;;;;;;;3.10;1.50;;;;;;;14.19;61.23;99667.53;24603;1334;3070537;-69
2022/10/24 13:43:02;;;;;;;3.20;1.70;;;;;;;14.20;61.15;99671.57;24462;1337;3049253;-67
2022/10/24 13:45:50;;;;;;;5.30;1.70;;;;;;;14.04;61.28;99673.77;24493;1334;3058318;-63
2022/10/24 13:48:22;;;;;;;4.00;1.50;;;;;;;14.03;61.76;99675.72;24433;1332;3053121;-65
2022/10/24 13:51:16;;;;;;;4.00;2.00;;;;;;;13.97;61.75;99675.85;24510;1340;3027826;-70
2022/10/24 13:53:52;;;;;;;3.40;2.00;;;;;;;13.99;61.89;99671.45;24520;1327;3050797;-62
2022/10/24 13:56:21;;;;;;;3.70;1.60;;;;;;;13.90;62.12;99671.03;24562;1334;3054033;-69
2022/10/24 13:58:50;;;;;;;2.20;1.80;;;;;;;13.92;62.39;99673.91;24448;1333;3029346;-66
2022/10/24 14:01:21;;;;;;;3.30;1.90;;;;;;;13.88;62.54;99676.30;24539;1327;3027062;-69
2022/10/24 14:03:53;;;;;;;3.00;2.00;;;;;;;13.76;62.92;99677.80;24507;1334;3052682;-68
2022/10/24 14:06:23;;;;;;;3.60;1.90;;;;;;;13.77;62.74;99676.55;24588;1340;3025990;-64
2022/10/24 14:08:53;;;;;;;5.60;2.00;;;;;;;13.76;62.97;99679.90;24622;1339;3027005;-70
2022/10/24 14:11:24;;;;;;;3.50;2.10;;;;;;;13.77;63.04;99675.27;24593;1334;3026941;-71
2022/10/24 14:13:57;;;;;;;4.70;2.40;;;;;;;13.74;63.07;99676.05;24540;1322;3025332;-69
2022/10/24 14:16:30;;;;;;;3.00;2.00;;;;;;;13.70;63.40;99676.48;24449;1326;3052318;-72
2022/10/24 14:19:13;;;;;;;4.70;2.30;;;;;;;13.71;63.26;99673.98;24457;1334;3053447;-68
2022/10/24 14:21:44;;;;;;;4.60;2.80;;;;;;;13.68;63.35;99676.06;24509;1333;3053059;-66
2022/10/24 14:24:17;;;;;;;3.40;2.30;;;;;;;13.62;63.82;99672.83;24450;1327;3028796;-69
2022/10/24 14:26:47;;;;;;;3.90;2.80;;;;;;;13.52;64.09;99672.64;24464;1336;3029798;-65
2022/10/24 14:29:30;;;;;;;4.20;2.70;;;;;;;13.49;64.11;99672.13;24488;1326;3027080;-71
2022/10/24 14:32:12;;;;;;;6.70;3.10;;;;;;;13.48;64.17;99673.09;24487;1334;3051226;-69
2022/10/24 14:34:41;;;;;;;4.30;2.90;;;;;;;13.45;64.44;99672.61;24504;1334;3058054;-66
2022/10/24 14:37:14;;;;;;;3.50;2.30;;;;;;;13.46;64.66;99671.47;24541;1333;3027864;-64
2022/10/24 14:39:43;;;;;;;3.70;2.60;;;;;;;13.48;64.45;99673.42;24507;1340;3026018;-72
2022/10/24 14:42:14;;;;;;;4.40;2.70;;;;;;;13.42;64.64;99681.09;24484;1329;3028813;-69
2022/10/24 14:44:45;;;;;;;5.70;2.20;;;;;;;13.46;64.81;99676.26;24511;1334;3025670;-68
2022/10/24 14:47:25;;;;;;;7.10;2.80;;;;;;;13.41;64.85;99680.97;24566;1334;3026362;-68
2022/10/24 14:49:54;;;;;;;4.60;3.10;;;;;;;13.36;65.06;99681.81;24551;1325;3070270;-65
2022/10/24 14:52:30;;;;;;;5.20;3.00;;;;;;;13.31;65.29;99685.48;24474;1333;3026372;-69
2022/10/24 14:55:03;;;;;;;5.40;2.90;;;;;;;13.34;65.22;99680.89;24604;1334;3049020;-70
2022/10/24 14:57:33;;;;;;;5.20;3.10;;;;;;;13.29;65.76;99684.39;24497;1334;3028730;-65
2022/10/24 15:00:06;;;;;;;5.90;3.20;;;;;;;13.28;65.66;99687.12;24561;1333;3027817;-69
2022/10/24 15:02:37;;;;;;;8.50;2.70;;;;;;;13.22;65.76;99687.48;24643;1326;3026301;-66
2022/10/24 15:05:13;;;;;;;5.40;3.10;;;;;;;13.22;65.91;99700.90;24589;1329;3026656;-70
2022/10/24 15:07:42;;;;;;;4.70;3.00;;;;;;;13.22;66.00;99704.55;24536;1334;3054170;-68
2022/10/24 15:10:11;;;;;;;4.70;3.00;;;;;;;13.25;66.03;99703.98;24523;1333;3026111;-70
2022/10/24 15:12:55;;;;;;;5.50;3.10;;;;;;;13.23;66.18;99706.79;24690;1337;3053862;-69
2022/10/24 15:15:47;;;;;;;5.10;3.40;;;;;;;13.16;66.30;99710.77;24719;1326;3054261;-67
2022/10/24 15:18:22;;;;;;;9.60;4.00;;;;;;;13.10;66.74;99714.71;24594;1333;3052676;-67
2022/10/24 15:20:58;;;;;;;6.50;3.90;;;;;;;13.00;67.09;99721.86;24564;1334;3052038;-67
2022/10/24 15:23:30;;;;;;;4.80;3.10;;;;;;;12.91;67.66;99729.46;24512;1333;3049001;-69
2022/10/24 15:26:10;;;;;;;5.70;3.30;;;;;;;12.90;67.73;99734.98;24651;1330;3028965;-67
2022/10/24 15:28:46;;;;;;;6.50;3.50;;;;;;;12.89;67.94;99747.39;24696;1332;3050267;-71
2022/10/24 15:31:17;;;;;;;8.40;3.70;;;;;;;12.79;68.26;99758.23;24691;1330;3056966;-70
2022/10/24 15:33:46;;;;;;;5.80;3.30;;;;;;;12.73;68.60;99760.86;24619;1334;3026729;-69
2022/10/24 15:36:22;;;;;;;6.20;4.50;;;;;;;12.75;68.83;99766.36;24773;1330;3027607;-63
2022/10/24 15:39:05;;;;;;;8.60;3.80;;;;;;;12.69;69.04;99759.72;24608;1334;3058884;-69
2022/10/24 15:41:35;;;;;;;;;;;;;;;12.77;68.53;99748.52;24594;1334;3053622;-65
2022/10/24 15:44:08;;;;;;;4.80;3.10;;;;;;;12.67;69.34;99751.64;24618;1333;3027379;-68
2022/10/24 15:46:39;;;;;;;7.50;3.80;;;;;;;12.63;69.45;99749.92;24645;1336;3056359;-65
2022/10/24 15:49:08;;;;;;;3.80;2.50;;;;;;;12.63;69.61;99755.56;24590;1332;3028800;-65
2022/10/24 15:51:38;;;;;;;7.20;2.60;;;;;;;13.33;68.26;99749.71;24647;1326;3026873;-64
2022/10/24 15:54:18;;;;;;;5.90;2.80;;;;;;;13.87;66.35;99733.38;24552;1325;3056074;-66
2022/10/24 15:56:47;;;;;;;4.20;2.80;;;;;;;13.87;65.59;99730.58;24550;1326;3054690;-70
2022/10/24 15:59:18;;;;;;;6.60;3.10;;;;;;;13.75;65.83;99735.81;24602;1331;3027401;-66
2022/10/24 16:01:54;;;;;;;6.50;3.60;;;;;;;13.56;66.06;99737.98;24570;1332;3028643;-70
2022/10/24 16:04:23;;;;;;;5.80;3.30;;;;;;;13.32;66.67;99742.91;24669;1340;3052300;-69
2022/10/24 16:06:54;;;;;;;8.80;4.70;;;;;;;13.21;67.06;99748.79;24760;1335;3025810;-63
2022/10/24 16:09:26;;;;;;;7.50;3.90;;;;;;;13.08;67.68;99750.88;24565;1337;3025654;-68
2022/10/24 16:11:55;;;;;;;6.60;3.40;;;;;;;13.05;67.71;99753.35;24637;1337;3052482;-64
2022/10/24 16:14:26;;;;;;;6.30;3.20;;;;;;;13.01;67.76;99750.99;24575;1329;3028798;-70
2022/10/24 16:16:55;;;;;;;4.90;3.00;;;;;;;12.95;68.17;99755.41;24636;1332;3027565;-75
2022/10/24 16:19:26;;;;;;;7.70;3.20;;;;;;;12.91;68.34;99755.31;24549;1337;3052849;-69
2022/10/24 16:21:57;;;;;;;7.20;3.40;;;;;;;12.82;68.86;99753.42;24533;1337;3026595;-64
2022/10/24 16:24:27;;;;;;;5.00;3.10;;;;;;;12.82;69.18;99754.89;24650;1322;3026640;-67